sensor_id;sensor_type;location;lat;lon;timestamp;temperature;humidity
4757;DHT22;2392;52.578;13.426;2023-05-07T00:00:29;10.00;99.90
4757;DHT22;2392;52.578;13.426;2023-05-07T00:02:56;10.00;99.90
4757;DHT22;2392;52.578;13.426;2023-05-07T00:05:23;10.00;99.90
4757;DHT22;2392;52.578;13.426;2023-05-07T00:07:50;9.90;99.90
4757;DHT22;2392;52.578;13.426;2023-05-07T00:10:19;9.90;99.90
4757;DHT22;2392;52.578;13.426;2023-05-07T00:12:46;9.90;99.90
4757;DHT22;2392;52.578;13.426;2023-05-07T00:15:13;9.90;99.90
4757;DHT22;2392;52.578;13.426;2023-05-07T00:17:40;9.90;99.90
4757;DHT22;2392;52.578;13.426;2023-05-07T00:20:08;9.90;99.90
4757;DHT22;2392;52.578;13.426;2023-05-07T00:22:35;9.90;99.90
4757;DHT22;2392;52.578;13.426;2023-05-07T00:25:03;9.90;99.90
4757;DHT22;2392;52.578;13.426;2023-05-07T00:27:33;9.90;99.90
4757;DHT22;2392;52.578;13.426;2023-05-07T00:30:00;9.90;99.90
4757;DHT22;2392;52.578;13.426;2023-05-07T00:32:27;9.90;99.90
4757;DHT22;2392;52.578;13.426;2023-05-07T00:34:54;9.90;99.90
4757;DHT22;2392;52.578;13.426;2023-05-07T00:37:22;9.90;99.90
4757;DHT22;2392;52.578;13.426;2023-05-07T00:39:48;9.90;99.90
4757;DHT22;2392;52.578;13.426;2023-05-07T00:42:15;9.90;99.90
4757;DHT22;2392;52.578;13.426;2023-05-07T00:44:44;9.80;99.90
4757;DHT22;2392;52.578;13.426;2023-05-07T00:47:11;9.80;99.90
4757;DHT22;2392;52.578;13.426;2023-05-07T00:49:41;9.80;99.90
4757;DHT22;2392;52.578;13.426;2023-05-07T00:52:10;9.90;99.90
4757;DHT22;2392;52.578;13.426;2023-05-07T00:54:38;9.80;99.90
4757;DHT22;2392;52.578;13.426;2023-05-07T00:57:06;9.90;99.90
4757;DHT22;2392;52.578;13.426;2023-05-07T00:59:35;9.90;99.90
4757;DHT22;2392;52.578;13.426;2023-05-07T01:02:04;9.90;99.90
4757;DHT22;2392;52.578;13.426;2023-05-07T01:04:31;9.90;99.90
4757;DHT22;2392;52.578;13.426;2023-05-07T01:06:58;9.90;99.90
4757;DHT22;2392;52.578;13.426;2023-05-07T01:09:26;9.90;99.90
4757;DHT22;2392;52.578;13.426;2023-05-07T01:11:55;9.90;99.90
4757;DHT22;2392;52.578;13.426;2023-05-07T01:14:23;10.00;99.90
4757;DHT22;2392;52.578;13.426;2023-05-07T01:16:51;9.90;99.90
4757;DHT22;2392;52.578;13.426;2023-05-07T01:19:22;9.90;99.90
4757;DHT22;2392;52.578;13.426;2023-05-07T01:21:49;9.90;99.90
4757;DHT22;2392;52.578;13.426;2023-05-07T01:24:20;9.90;99.90
4757;DHT22;2392;52.578;13.426;2023-05-07T01:26:47;9.90;99.90
4757;DHT22;2392;52.578;13.426;2023-05-07T01:29:16;9.90;99.90
4757;DHT22;2392;52.578;13.426;2023-05-07T01:31:45;9.90;99.90
4757;DHT22;2392;52.578;13.426;2023-05-07T01:34:14;9.80;99.90
4757;DHT22;2392;52.578;13.426;2023-05-07T01:36:43;9.80;99.90
4757;DHT22;2392;52.578;13.426;2023-05-07T01:39:11;9.80;99.90
4757;DHT22;2392;52.578;13.426;2023-05-07T01:41:40;9.80;99.90
4757;DHT22;2392;52.578;13.426;2023-05-07T01:44:07;9.80;99.90
4757;DHT22;2392;52.578;13.426;2023-05-07T01:46:35;9.80;99.90
4757;DHT22;2392;52.578;13.426;2023-05-07T01:49:02;9.80;99.90
4757;DHT22;2392;52.578;13.426;2023-05-07T01:51:30;9.80;99.90
4757;DHT22;2392;52.578;13.426;2023-05-07T01:53:57;9.80;99.90
4757;DHT22;2392;52.578;13.426;2023-05-07T01:56:25;9.80;99.90
4757;DHT22;2392;52.578;13.426;2023-05-07T01:58:53;9.80;99.90
4757;DHT22;2392;52.578;13.426;2023-05-07T02:01:21;9.90;99.90
4757;DHT22;2392;52.578;13.426;2023-05-07T02:03:49;9.90;99.90
4757;DHT22;2392;52.578;13.426;2023-05-07T02:06:22;9.80;99.90
4757;DHT22;2392;52.578;13.426;2023-05-07T02:08:51;9.80;99.90
4757;DHT22;2392;52.578;13.426;2023-05-07T02:11:18;9.90;99.90
4757;DHT22;2392;52.578;13.426;2023-05-07T02:13:45;9.90;99.90
4757;DHT22;2392;52.578;13.426;2023-05-07T02:16:13;9.90;99.90
4757;DHT22;2392;52.578;13.426;2023-05-07T02:18:40;9.90;99.90
4757;DHT22;2392;52.578;13.426;2023-05-07T02:21:07;9.90;99.90
4757;DHT22;2392;52.578;13.426;2023-05-07T02:23:34;9.90;99.90
4757;DHT22;2392;52.578;13.426;2023-05-07T02:26:01;9.90;99.90
4757;DHT22;2392;52.578;13.426;2023-05-07T02:28:29;9.90;99.90
4757;DHT22;2392;52.578;13.426;2023-05-07T02:31:05;9.90;99.90
4757;DHT22;2392;52.578;13.426;2023-05-07T02:33:34;9.90;99.90
4757;DHT22;2392;52.578;13.426;2023-05-07T02:36:08;9.90;99.90
4757;DHT22;2392;52.578;13.426;2023-05-07T02:38:40;9.90;99.90
4757;DHT22;2392;52.578;13.426;2023-05-07T02:41:07;9.90;99.90
4757;DHT22;2392;52.578;13.426;2023-05-07T02:43:34;9.90;99.90
4757;DHT22;2392;52.578;13.426;2023-05-07T02:46:02;9.90;99.90
4757;DHT22;2392;52.578;13.426;2023-05-07T02:48:29;9.80;99.90
4757;DHT22;2392;52.578;13.426;2023-05-07T02:50:58;9.80;99.90
4757;DHT22;2392;52.578;13.426;2023-05-07T02:53:25;9.80;99.90
4757;DHT22;2392;52.578;13.426;2023-05-07T02:55:52;9.80;99.90
4757;DHT22;2392;52.578;13.426;2023-05-07T02:58:19;9.80;99.90
4757;DHT22;2392;52.578;13.426;2023-05-07T03:00:46;9.80;99.90
4757;DHT22;2392;52.578;13.426;2023-05-07T03:03:46;9.80;99.90
4757;DHT22;2392;52.578;13.426;2023-05-07T03:06:14;9.80;99.90
4757;DHT22;2392;52.578;13.426;2023-05-07T03:08:42;9.70;99.90
4757;DHT22;2392;52.578;13.426;2023-05-07T03:11:09;9.80;99.90
4757;DHT22;2392;52.578;13.426;2023-05-07T03:13:36;9.80;99.90
4757;DHT22;2392;52.578;13.426;2023-05-07T03:16:03;9.80;99.90
4757;DHT22;2392;52.578;13.426;2023-05-07T03:18:31;9.80;99.90
4757;DHT22;2392;52.578;13.426;2023-05-07T03:20:58;9.90;99.90
4757;DHT22;2392;52.578;13.426;2023-05-07T03:23:26;9.80;99.90
4757;DHT22;2392;52.578;13.426;2023-05-07T03:25:53;9.90;99.90
4757;DHT22;2392;52.578;13.426;2023-05-07T03:28:20;9.90;99.90
4757;DHT22;2392;52.578;13.426;2023-05-07T03:30:56;9.90;99.90
4757;DHT22;2392;52.578;13.426;2023-05-07T03:33:23;9.80;99.90
4757;DHT22;2392;52.578;13.426;2023-05-07T03:35:50;9.80;99.90
4757;DHT22;2392;52.578;13.426;2023-05-07T03:38:22;9.80;99.90
4757;DHT22;2392;52.578;13.426;2023-05-07T03:40:50;9.90;99.90
4757;DHT22;2392;52.578;13.426;2023-05-07T03:43:18;9.80;99.90
4757;DHT22;2392;52.578;13.426;2023-05-07T03:45:50;9.80;99.90
4757;DHT22;2392;52.578;13.426;2023-05-07T03:48:22;9.80;99.90
4757;DHT22;2392;52.578;13.426;2023-05-07T03:50:51;9.80;99.90
4757;DHT22;2392;52.578;13.426;2023-05-07T03:53:20;9.80;99.90
4757;DHT22;2392;52.578;13.426;2023-05-07T03:55:47;9.70;99.90
4757;DHT22;2392;52.578;13.426;2023-05-07T03:58:15;9.80;99.90
4757;DHT22;2392;52.578;13.426;2023-05-07T04:00:42;9.80;99.90
4757;DHT22;2392;52.578;13.426;2023-05-07T04:03:20;9.80;99.90
4757;DHT22;2392;52.578;13.426;2023-05-07T04:05:47;9.80;99.90
4757;DHT22;2392;52.578;13.426;2023-05-07T04:08:14;9.80;99.90
4757;DHT22;2392;52.578;13.426;2023-05-07T04:10:46;9.80;99.90
4757;DHT22;2392;52.578;13.426;2023-05-07T04:13:14;9.80;99.90
4757;DHT22;2392;52.578;13.426;2023-05-07T04:15:43;9.90;99.90
4757;DHT22;2392;52.578;13.426;2023-05-07T04:18:13;9.90;99.90
4757;DHT22;2392;52.578;13.426;2023-05-07T04:20:43;9.90;99.90
4757;DHT22;2392;52.578;13.426;2023-05-07T04:23:13;9.90;99.90
4757;DHT22;2392;52.578;13.426;2023-05-07T04:25:40;9.90;99.90
4757;DHT22;2392;52.578;13.426;2023-05-07T04:28:21;9.90;99.90
4757;DHT22;2392;52.578;13.426;2023-05-07T04:30:49;9.90;99.90
4757;DHT22;2392;52.578;13.426;2023-05-07T04:33:16;9.90;99.90
4757;DHT22;2392;52.578;13.426;2023-05-07T04:35:44;9.90;99.90
4757;DHT22;2392;52.578;13.426;2023-05-07T04:38:11;9.90;99.90
4757;DHT22;2392;52.578;13.426;2023-05-07T04:40:39;9.90;99.90
4757;DHT22;2392;52.578;13.426;2023-05-07T04:43:08;9.90;99.90
4757;DHT22;2392;52.578;13.426;2023-05-07T04:45:44;9.90;99.90
4757;DHT22;2392;52.578;13.426;2023-05-07T04:48:11;9.90;99.90
4757;DHT22;2392;52.578;13.426;2023-05-07T04:50:40;9.90;99.90
4757;DHT22;2392;52.578;13.426;2023-05-07T04:53:08;10.00;99.90
4757;DHT22;2392;52.578;13.426;2023-05-07T04:55:35;10.00;99.90
4757;DHT22;2392;52.578;13.426;2023-05-07T04:58:03;9.90;99.90
4757;DHT22;2392;52.578;13.426;2023-05-07T05:00:33;9.90;99.90
4757;DHT22;2392;52.578;13.426;2023-05-07T05:03:04;9.90;99.90
4757;DHT22;2392;52.578;13.426;2023-05-07T05:05:32;9.80;99.90
4757;DHT22;2392;52.578;13.426;2023-05-07T05:08:00;9.80;99.90
4757;DHT22;2392;52.578;13.426;2023-05-07T05:10:27;9.80;99.90
4757;DHT22;2392;52.578;13.426;2023-05-07T05:12:55;9.80;99.90
4757;DHT22;2392;52.578;13.426;2023-05-07T05:15:23;9.80;99.90
4757;DHT22;2392;52.578;13.426;2023-05-07T05:17:51;9.80;99.90
4757;DHT22;2392;52.578;13.426;2023-05-07T05:20:19;9.80;99.90
4757;DHT22;2392;52.578;13.426;2023-05-07T05:22:47;9.90;99.90
4757;DHT22;2392;52.578;13.426;2023-05-07T05:25:14;9.90;99.90
4757;DHT22;2392;52.578;13.426;2023-05-07T05:27:42;9.90;99.90
4757;DHT22;2392;52.578;13.426;2023-05-07T05:30:10;10.00;99.90
4757;DHT22;2392;52.578;13.426;2023-05-07T05:32:38;9.90;99.90
4757;DHT22;2392;52.578;13.426;2023-05-07T05:35:06;10.00;99.90
4757;DHT22;2392;52.578;13.426;2023-05-07T05:37:35;10.00;99.90
4757;DHT22;2392;52.578;13.426;2023-05-07T05:40:05;10.00;99.90
4757;DHT22;2392;52.578;13.426;2023-05-07T05:42:32;10.10;99.90
4757;DHT22;2392;52.578;13.426;2023-05-07T05:44:59;10.20;99.90
4757;DHT22;2392;52.578;13.426;2023-05-07T05:47:29;10.20;99.90
4757;DHT22;2392;52.578;13.426;2023-05-07T05:49:56;10.30;99.90
4757;DHT22;2392;52.578;13.426;2023-05-07T05:52:23;10.40;99.90
4757;DHT22;2392;52.578;13.426;2023-05-07T05:54:53;10.40;99.90
4757;DHT22;2392;52.578;13.426;2023-05-07T05:57:20;10.40;99.90
4757;DHT22;2392;52.578;13.426;2023-05-07T05:59:47;10.50;99.90
4757;DHT22;2392;52.578;13.426;2023-05-07T06:02:14;10.50;99.90
4757;DHT22;2392;52.578;13.426;2023-05-07T06:04:42;10.50;99.90
4757;DHT22;2392;52.578;13.426;2023-05-07T06:07:11;10.60;99.90
4757;DHT22;2392;52.578;13.426;2023-05-07T06:09:38;10.70;99.90
4757;DHT22;2392;52.578;13.426;2023-05-07T06:12:06;10.70;99.90
4757;DHT22;2392;52.578;13.426;2023-05-07T06:14:34;10.80;99.90
4757;DHT22;2392;52.578;13.426;2023-05-07T06:17:01;10.80;99.90
4757;DHT22;2392;52.578;13.426;2023-05-07T06:19:28;10.90;99.90
4757;DHT22;2392;52.578;13.426;2023-05-07T06:21:57;11.00;99.90
4757;DHT22;2392;52.578;13.426;2023-05-07T06:24:26;11.00;99.90
4757;DHT22;2392;52.578;13.426;2023-05-07T06:26:53;11.10;99.90
4757;DHT22;2392;52.578;13.426;2023-05-07T06:29:23;11.10;99.90
4757;DHT22;2392;52.578;13.426;2023-05-07T06:31:52;11.10;99.90
4757;DHT22;2392;52.578;13.426;2023-05-07T06:34:19;11.20;99.90
4757;DHT22;2392;52.578;13.426;2023-05-07T06:36:46;11.20;99.90
4757;DHT22;2392;52.578;13.426;2023-05-07T06:39:29;11.20;99.90
4757;DHT22;2392;52.578;13.426;2023-05-07T06:41:57;11.20;99.90
4757;DHT22;2392;52.578;13.426;2023-05-07T06:44:30;11.30;99.90
4757;DHT22;2392;52.578;13.426;2023-05-07T06:47:04;11.30;99.90
4757;DHT22;2392;52.578;13.426;2023-05-07T06:49:31;11.40;99.90
4757;DHT22;2392;52.578;13.426;2023-05-07T06:51:58;11.40;99.90
4757;DHT22;2392;52.578;13.426;2023-05-07T06:54:26;11.40;99.90
4757;DHT22;2392;52.578;13.426;2023-05-07T06:56:53;11.40;99.90
4757;DHT22;2392;52.578;13.426;2023-05-07T06:59:23;11.40;99.90
4757;DHT22;2392;52.578;13.426;2023-05-07T07:01:52;11.60;99.90
4757;DHT22;2392;52.578;13.426;2023-05-07T07:04:20;11.60;99.90
4757;DHT22;2392;52.578;13.426;2023-05-07T07:06:54;11.70;99.90
4757;DHT22;2392;52.578;13.426;2023-05-07T07:09:22;11.80;99.90
4757;DHT22;2392;52.578;13.426;2023-05-07T07:11:51;11.80;99.90
4757;DHT22;2392;52.578;13.426;2023-05-07T07:14:18;11.90;99.90
4757;DHT22;2392;52.578;13.426;2023-05-07T07:16:49;12.00;99.90
4757;DHT22;2392;52.578;13.426;2023-05-07T07:19:20;12.10;99.90
4757;DHT22;2392;52.578;13.426;2023-05-07T07:21:49;12.10;99.90
4757;DHT22;2392;52.578;13.426;2023-05-07T07:24:16;12.20;99.90
4757;DHT22;2392;52.578;13.426;2023-05-07T07:26:48;12.20;99.90
4757;DHT22;2392;52.578;13.426;2023-05-07T07:29:16;12.20;99.90
4757;DHT22;2392;52.578;13.426;2023-05-07T07:31:44;12.30;99.90
4757;DHT22;2392;52.578;13.426;2023-05-07T07:34:12;12.30;99.90
4757;DHT22;2392;52.578;13.426;2023-05-07T07:36:40;12.40;99.90
4757;DHT22;2392;52.578;13.426;2023-05-07T07:39:08;12.40;99.90
4757;DHT22;2392;52.578;13.426;2023-05-07T07:41:36;12.40;99.90
4757;DHT22;2392;52.578;13.426;2023-05-07T07:44:03;12.40;99.90
4757;DHT22;2392;52.578;13.426;2023-05-07T07:46:35;12.40;99.90
4757;DHT22;2392;52.578;13.426;2023-05-07T07:49:02;12.40;99.90
4757;DHT22;2392;52.578;13.426;2023-05-07T07:51:30;12.40;99.90
4757;DHT22;2392;52.578;13.426;2023-05-07T07:54:00;12.40;99.90
4757;DHT22;2392;52.578;13.426;2023-05-07T07:56:30;12.40;99.90
4757;DHT22;2392;52.578;13.426;2023-05-07T07:58:57;12.40;99.90
4757;DHT22;2392;52.578;13.426;2023-05-07T08:01:24;12.50;99.90
4757;DHT22;2392;52.578;13.426;2023-05-07T08:03:53;12.60;99.90
4757;DHT22;2392;52.578;13.426;2023-05-07T08:06:21;12.60;99.90
4757;DHT22;2392;52.578;13.426;2023-05-07T08:08:48;12.70;99.90
4757;DHT22;2392;52.578;13.426;2023-05-07T08:11:17;12.80;99.90
4757;DHT22;2392;52.578;13.426;2023-05-07T08:13:45;12.90;99.90
4757;DHT22;2392;52.578;13.426;2023-05-07T08:16:13;13.00;99.90
4757;DHT22;2392;52.578;13.426;2023-05-07T08:18:41;13.10;99.90
4757;DHT22;2392;52.578;13.426;2023-05-07T08:21:08;13.00;99.90
4757;DHT22;2392;52.578;13.426;2023-05-07T08:23:35;13.10;99.90
4757;DHT22;2392;52.578;13.426;2023-05-07T08:26:04;13.20;99.90
4757;DHT22;2392;52.578;13.426;2023-05-07T08:28:33;13.30;99.90
4757;DHT22;2392;52.578;13.426;2023-05-07T08:31:00;13.40;99.90
4757;DHT22;2392;52.578;13.426;2023-05-07T08:33:31;13.50;99.90
4757;DHT22;2392;52.578;13.426;2023-05-07T08:35:58;13.70;99.90
4757;DHT22;2392;52.578;13.426;2023-05-07T08:38:25;13.80;99.90
4757;DHT22;2392;52.578;13.426;2023-05-07T08:40:52;13.90;99.90
4757;DHT22;2392;52.578;13.426;2023-05-07T08:43:21;14.00;99.90
4757;DHT22;2392;52.578;13.426;2023-05-07T08:45:53;14.10;99.90
4757;DHT22;2392;52.578;13.426;2023-05-07T08:48:25;14.20;99.90
4757;DHT22;2392;52.578;13.426;2023-05-07T08:51:03;14.20;99.90
4757;DHT22;2392;52.578;13.426;2023-05-07T08:53:31;14.30;99.90
4757;DHT22;2392;52.578;13.426;2023-05-07T08:55:58;14.40;99.90
4757;DHT22;2392;52.578;13.426;2023-05-07T08:58:28;14.60;99.90
4757;DHT22;2392;52.578;13.426;2023-05-07T09:00:56;14.70;99.90
4757;DHT22;2392;52.578;13.426;2023-05-07T09:03:24;14.80;99.90
4757;DHT22;2392;52.578;13.426;2023-05-07T09:05:54;14.80;99.90
4757;DHT22;2392;52.578;13.426;2023-05-07T09:08:24;14.90;99.90
4757;DHT22;2392;52.578;13.426;2023-05-07T09:10:54;14.90;99.90
4757;DHT22;2392;52.578;13.426;2023-05-07T09:13:22;14.80;99.90
4757;DHT22;2392;52.578;13.426;2023-05-07T09:15:49;14.90;99.90
4757;DHT22;2392;52.578;13.426;2023-05-07T09:18:18;15.00;99.90
4757;DHT22;2392;52.578;13.426;2023-05-07T09:20:48;15.10;99.90
4757;DHT22;2392;52.578;13.426;2023-05-07T09:23:18;15.30;99.90
4757;DHT22;2392;52.578;13.426;2023-05-07T09:25:45;15.50;99.90
4757;DHT22;2392;52.578;13.426;2023-05-07T09:28:23;15.60;99.90
4757;DHT22;2392;52.578;13.426;2023-05-07T09:30:50;15.80;99.90
4757;DHT22;2392;52.578;13.426;2023-05-07T09:33:20;15.70;99.90
4757;DHT22;2392;52.578;13.426;2023-05-07T09:35:51;15.70;99.90
4757;DHT22;2392;52.578;13.426;2023-05-07T09:38:20;15.70;99.90
4757;DHT22;2392;52.578;13.426;2023-05-07T09:41:02;15.70;99.90
4757;DHT22;2392;52.578;13.426;2023-05-07T09:43:32;15.50;99.90
4757;DHT22;2392;52.578;13.426;2023-05-07T09:46:07;15.40;99.90
4757;DHT22;2392;52.578;13.426;2023-05-07T09:48:39;15.30;99.90
4757;DHT22;2392;52.578;13.426;2023-05-07T09:51:15;15.10;99.90
4757;DHT22;2392;52.578;13.426;2023-05-07T09:53:43;15.00;99.90
4757;DHT22;2392;52.578;13.426;2023-05-07T09:56:14;15.10;99.90
4757;DHT22;2392;52.578;13.426;2023-05-07T09:58:43;15.10;99.90
4757;DHT22;2392;52.578;13.426;2023-05-07T10:01:13;15.10;99.90
4757;DHT22;2392;52.578;13.426;2023-05-07T10:03:43;15.30;99.90
4757;DHT22;2392;52.578;13.426;2023-05-07T10:06:12;15.50;99.90
4757;DHT22;2392;52.578;13.426;2023-05-07T10:08:40;15.80;99.90
4757;DHT22;2392;52.578;13.426;2023-05-07T10:11:08;16.20;99.90
4757;DHT22;2392;52.578;13.426;2023-05-07T10:13:36;16.40;99.90
4757;DHT22;2392;52.578;13.426;2023-05-07T10:16:05;16.50;99.90
4757;DHT22;2392;52.578;13.426;2023-05-07T10:18:41;16.40;99.90
4757;DHT22;2392;52.578;13.426;2023-05-07T10:21:17;16.40;99.90
4757;DHT22;2392;52.578;13.426;2023-05-07T10:23:55;16.20;99.90
4757;DHT22;2392;52.578;13.426;2023-05-07T10:26:24;16.20;99.90
4757;DHT22;2392;52.578;13.426;2023-05-07T10:28:57;16.20;99.90
4757;DHT22;2392;52.578;13.426;2023-05-07T10:31:44;16.20;99.90
4757;DHT22;2392;52.578;13.426;2023-05-07T10:34:19;16.20;99.90
4757;DHT22;2392;52.578;13.426;2023-05-07T10:36:48;16.10;99.90
4757;DHT22;2392;52.578;13.426;2023-05-07T10:39:18;15.90;99.90
4757;DHT22;2392;52.578;13.426;2023-05-07T10:41:46;15.90;99.90
4757;DHT22;2392;52.578;13.426;2023-05-07T10:44:25;16.00;99.90
4757;DHT22;2392;52.578;13.426;2023-05-07T10:47:04;16.20;99.90
4757;DHT22;2392;52.578;13.426;2023-05-07T10:49:36;16.30;99.90
4757;DHT22;2392;52.578;13.426;2023-05-07T10:52:12;16.60;99.90
4757;DHT22;2392;52.578;13.426;2023-05-07T10:54:42;17.40;99.90
4757;DHT22;2392;52.578;13.426;2023-05-07T10:57:33;18.50;99.90
4757;DHT22;2392;52.578;13.426;2023-05-07T11:00:41;20.70;99.90
4757;DHT22;2392;52.578;13.426;2023-05-07T11:03:13;23.10;99.90
4757;DHT22;2392;52.578;13.426;2023-05-07T11:06:13;25.00;96.60
4757;DHT22;2392;52.578;13.426;2023-05-07T11:09:03;25.30;91.50
4757;DHT22;2392;52.578;13.426;2023-05-07T11:11:50;25.60;90.20
4757;DHT22;2392;52.578;13.426;2023-05-07T11:14:45;26.70;88.80
4757;DHT22;2392;52.578;13.426;2023-05-07T11:17:17;27.80;82.30
4757;DHT22;2392;52.578;13.426;2023-05-07T11:19:51;28.00;76.40
4757;DHT22;2392;52.578;13.426;2023-05-07T11:22:52;28.40;73.80
4757;DHT22;2392;52.578;13.426;2023-05-07T11:25:34;29.00;72.90
4757;DHT22;2392;52.578;13.426;2023-05-07T11:28:21;29.20;71.00
4757;DHT22;2392;52.578;13.426;2023-05-07T11:30:59;28.40;68.00
4757;DHT22;2392;52.578;13.426;2023-05-07T11:33:27;27.10;68.00
4757;DHT22;2392;52.578;13.426;2023-05-07T11:35:56;25.70;68.90
4757;DHT22;2392;52.578;13.426;2023-05-07T11:38:35;24.20;71.80
4757;DHT22;2392;52.578;13.426;2023-05-07T11:41:03;23.10;74.20
4757;DHT22;2392;52.578;13.426;2023-05-07T11:43:30;22.20;76.30
4757;DHT22;2392;52.578;13.426;2023-05-07T11:46:06;21.30;78.20
4757;DHT22;2392;52.578;13.426;2023-05-07T11:48:33;20.50;79.90
4757;DHT22;2392;52.578;13.426;2023-05-07T11:51:02;20.30;81.50
4757;DHT22;2392;52.578;13.426;2023-05-07T11:53:37;19.80;82.70
4757;DHT22;2392;52.578;13.426;2023-05-07T11:56:08;19.50;84.10
4757;DHT22;2392;52.578;13.426;2023-05-07T11:58:35;19.30;86.00
4757;DHT22;2392;52.578;13.426;2023-05-07T12:01:03;19.20;85.80
4757;DHT22;2392;52.578;13.426;2023-05-07T12:03:30;18.90;85.80
4757;DHT22;2392;52.578;13.426;2023-05-07T12:05:57;18.90;87.30
4757;DHT22;2392;52.578;13.426;2023-05-07T12:08:24;18.60;87.50
4757;DHT22;2392;52.578;13.426;2023-05-07T12:10:53;18.70;87.80
4757;DHT22;2392;52.578;13.426;2023-05-07T12:13:22;18.60;87.40
4757;DHT22;2392;52.578;13.426;2023-05-07T12:15:51;18.40;88.00
4757;DHT22;2392;52.578;13.426;2023-05-07T12:18:18;18.40;87.80
4757;DHT22;2392;52.578;13.426;2023-05-07T12:20:45;18.40;88.50
4757;DHT22;2392;52.578;13.426;2023-05-07T12:23:13;18.40;89.90
4757;DHT22;2392;52.578;13.426;2023-05-07T12:25:40;18.40;90.00
4757;DHT22;2392;52.578;13.426;2023-05-07T12:28:14;18.50;89.20
4757;DHT22;2392;52.578;13.426;2023-05-07T12:30:42;18.70;89.20
4757;DHT22;2392;52.578;13.426;2023-05-07T12:33:10;19.00;90.10
4757;DHT22;2392;52.578;13.426;2023-05-07T12:35:39;19.20;87.00
4757;DHT22;2392;52.578;13.426;2023-05-07T12:38:09;19.30;87.00
4757;DHT22;2392;52.578;13.426;2023-05-07T12:40:37;19.50;87.30
4757;DHT22;2392;52.578;13.426;2023-05-07T12:43:04;19.70;87.40
4757;DHT22;2392;52.578;13.426;2023-05-07T12:45:37;19.80;87.50
4757;DHT22;2392;52.578;13.426;2023-05-07T12:48:05;19.70;85.90
4757;DHT22;2392;52.578;13.426;2023-05-07T12:50:32;19.80;86.60
4757;DHT22;2392;52.578;13.426;2023-05-07T12:52:59;19.80;87.80
4757;DHT22;2392;52.578;13.426;2023-05-07T12:55:26;19.60;87.80
4757;DHT22;2392;52.578;13.426;2023-05-07T12:57:55;19.60;86.90
4757;DHT22;2392;52.578;13.426;2023-05-07T13:00:38;19.50;86.70
4757;DHT22;2392;52.578;13.426;2023-05-07T13:03:05;19.50;87.20
4757;DHT22;2392;52.578;13.426;2023-05-07T13:05:32;19.50;87.50
4757;DHT22;2392;52.578;13.426;2023-05-07T13:07:59;19.30;85.90
4757;DHT22;2392;52.578;13.426;2023-05-07T13:10:27;19.10;85.20
4757;DHT22;2392;52.578;13.426;2023-05-07T13:12:54;19.00;85.60
4757;DHT22;2392;52.578;13.426;2023-05-07T13:15:21;18.90;87.30
4757;DHT22;2392;52.578;13.426;2023-05-07T13:17:50;18.80;88.30
4757;DHT22;2392;52.578;13.426;2023-05-07T13:20:17;18.70;88.40
4757;DHT22;2392;52.578;13.426;2023-05-07T13:22:44;18.80;87.70
4757;DHT22;2392;52.578;13.426;2023-05-07T13:25:11;18.90;86.50
4757;DHT22;2392;52.578;13.426;2023-05-07T13:27:38;18.80;86.60
4757;DHT22;2392;52.578;13.426;2023-05-07T13:30:06;18.80;88.10
4757;DHT22;2392;52.578;13.426;2023-05-07T13:32:33;18.80;88.90
4757;DHT22;2392;52.578;13.426;2023-05-07T13:35:02;18.80;87.80
4757;DHT22;2392;52.578;13.426;2023-05-07T13:37:29;18.80;88.30
4757;DHT22;2392;52.578;13.426;2023-05-07T13:39:56;18.80;90.00
4757;DHT22;2392;52.578;13.426;2023-05-07T13:42:23;18.80;88.10
4757;DHT22;2392;52.578;13.426;2023-05-07T13:44:50;18.80;89.20
4757;DHT22;2392;52.578;13.426;2023-05-07T13:47:17;18.80;88.30
4757;DHT22;2392;52.578;13.426;2023-05-07T13:49:44;18.90;87.60
4757;DHT22;2392;52.578;13.426;2023-05-07T13:52:12;19.10;87.60
4757;DHT22;2392;52.578;13.426;2023-05-07T13:54:39;19.30;86.60
4757;DHT22;2392;52.578;13.426;2023-05-07T13:57:06;19.50;86.30
4757;DHT22;2392;52.578;13.426;2023-05-07T13:59:33;19.90;86.10
4757;DHT22;2392;52.578;13.426;2023-05-07T14:02:00;20.10;86.00
4757;DHT22;2392;52.578;13.426;2023-05-07T14:04:27;20.00;82.50
4757;DHT22;2392;52.578;13.426;2023-05-07T14:06:54;19.70;82.10
4757;DHT22;2392;52.578;13.426;2023-05-07T14:09:23;19.30;83.20
4757;DHT22;2392;52.578;13.426;2023-05-07T14:11:50;19.30;85.20
4757;DHT22;2392;52.578;13.426;2023-05-07T14:14:17;19.40;83.80
4757;DHT22;2392;52.578;13.426;2023-05-07T14:16:44;19.50;82.80
4757;DHT22;2392;52.578;13.426;2023-05-07T14:19:12;19.70;83.90
4757;DHT22;2392;52.578;13.426;2023-05-07T14:21:39;19.70;83.60
4757;DHT22;2392;52.578;13.426;2023-05-07T14:24:07;19.70;82.80
4757;DHT22;2392;52.578;13.426;2023-05-07T14:26:35;19.60;84.10
4757;DHT22;2392;52.578;13.426;2023-05-07T14:29:03;19.50;84.70
4757;DHT22;2392;52.578;13.426;2023-05-07T14:31:30;19.40;84.80
4757;DHT22;2392;52.578;13.426;2023-05-07T14:33:57;19.20;84.30
4757;DHT22;2392;52.578;13.426;2023-05-07T14:36:24;19.00;84.70
4757;DHT22;2392;52.578;13.426;2023-05-07T14:38:52;18.80;84.60
4757;DHT22;2392;52.578;13.426;2023-05-07T14:41:19;18.80;85.40
4757;DHT22;2392;52.578;13.426;2023-05-07T14:43:48;18.80;86.00
4757;DHT22;2392;52.578;13.426;2023-05-07T14:46:17;18.70;84.30
4757;DHT22;2392;52.578;13.426;2023-05-07T14:48:44;18.90;85.10
4757;DHT22;2392;52.578;13.426;2023-05-07T14:51:11;19.00;85.40
4757;DHT22;2392;52.578;13.426;2023-05-07T14:53:40;19.00;85.50
4757;DHT22;2392;52.578;13.426;2023-05-07T14:56:07;18.90;85.80
4757;DHT22;2392;52.578;13.426;2023-05-07T14:58:34;18.80;85.60
4757;DHT22;2392;52.578;13.426;2023-05-07T15:01:03;18.80;86.10
4757;DHT22;2392;52.578;13.426;2023-05-07T15:03:30;18.60;85.80
4757;DHT22;2392;52.578;13.426;2023-05-07T15:05:57;18.70;86.60
4757;DHT22;2392;52.578;13.426;2023-05-07T15:08:24;18.80;86.30
4757;DHT22;2392;52.578;13.426;2023-05-07T15:10:50;19.10;86.90
4757;DHT22;2392;52.578;13.426;2023-05-07T15:13:17;19.30;86.10
4757;DHT22;2392;52.578;13.426;2023-05-07T15:15:44;19.50;87.10
4757;DHT22;2392;52.578;13.426;2023-05-07T15:18:14;19.60;85.50
4757;DHT22;2392;52.578;13.426;2023-05-07T15:20:42;19.50;85.30
4757;DHT22;2392;52.578;13.426;2023-05-07T15:23:09;19.40;84.30
4757;DHT22;2392;52.578;13.426;2023-05-07T15:25:38;19.40;84.90
4757;DHT22;2392;52.578;13.426;2023-05-07T15:28:05;19.10;84.60
4757;DHT22;2392;52.578;13.426;2023-05-07T15:30:32;18.90;84.70
4757;DHT22;2392;52.578;13.426;2023-05-07T15:33:00;18.80;85.50
4757;DHT22;2392;52.578;13.426;2023-05-07T15:35:29;18.50;85.20
4757;DHT22;2392;52.578;13.426;2023-05-07T15:37:56;18.20;86.50
4757;DHT22;2392;52.578;13.426;2023-05-07T15:40:23;18.10;87.00
4757;DHT22;2392;52.578;13.426;2023-05-07T15:42:54;18.00;87.30
4757;DHT22;2392;52.578;13.426;2023-05-07T15:45:22;17.70;87.50
4757;DHT22;2392;52.578;13.426;2023-05-07T15:47:49;17.60;88.40
4757;DHT22;2392;52.578;13.426;2023-05-07T15:50:16;17.70;88.70
4757;DHT22;2392;52.578;13.426;2023-05-07T15:52:44;17.80;89.50
4757;DHT22;2392;52.578;13.426;2023-05-07T15:55:12;17.90;87.40
4757;DHT22;2392;52.578;13.426;2023-05-07T15:57:39;18.10;87.20
4757;DHT22;2392;52.578;13.426;2023-05-07T16:00:07;18.10;87.00
4757;DHT22;2392;52.578;13.426;2023-05-07T16:02:40;18.20;87.30
4757;DHT22;2392;52.578;13.426;2023-05-07T16:05:07;18.20;87.40